Time;durP1;ratioP1;P1;durP2;ratioP2;P2;SDS_P1;SDS_P2;PMS_P1;PMS_P2;Temp;Humidity;BMP_temperature;BMP_pressure;BME280_temperature;BME280_humidity;BME280_pressure;Samples;Min_cycle;Max_cycle;Signal;HPM_P1;HPM_P2
2021/05/06 00:03:38;;;;;;;4.47;1.80;;;13.10;63.40;13.40;99390.00;;;;335336;28;82789;-87
2021/05/06 00:07:34;;;;;;;11.38;2.55;;;13.10;64.40;13.20;99382.00;;;;333370;29;84175;-87
2021/05/06 00:08:07;;;;;;;3.85;1.88;;;13.00;64.80;13.10;99395.00;;;;337314;28;84487;-87
2021/05/06 00:08:30;;;;;;;5.28;2.50;;;13.00;64.40;13.00;99382.00;;;;337164;28;83422;-87
2021/05/06 00:11:01;;;;;;;4.95;2.17;;;12.90;65.20;12.90;99386.00;;;;334695;29;85620;-86
2021/05/06 00:29:38;;;;;;;6.75;1.98;;;12.80;65.20;13.10;99379.00;;;;334717;29;83566;-87
2021/05/06 00:30:48;;;;;;;5.45;2.67;;;12.80;67.10;12.80;99340.00;;;;337243;28;85587;-87
2021/05/06 00:31:24;;;;;;;4.72;2.22;;;12.80;67.10;12.90;99346.00;;;;338211;28;84068;-87
2021/05/06 00:32:17;;;;;;;4.95;2.58;;;12.70;67.00;12.80;99339.00;;;;337167;28;85416;-87
2021/05/06 00:32:31;;;;;;;4.75;2.90;;;12.70;66.80;12.90;99341.00;;;;338255;28;83452;-87
2021/05/06 00:32:50;;;;;;;4.82;2.85;;;12.70;67.10;12.80;99343.00;;;;338118;28;85403;-86
2021/05/06 00:33:04;;;;;;;4.35;2.72;;;12.70;67.10;12.60;99344.00;;;;337185;28;83365;-86
2021/05/06 00:33:15;;;;;;;6.35;2.88;;;12.70;67.80;12.70;99339.00;;;;337208;28;85410;-87
2021/05/06 00:33:27;;;;;;;5.85;2.65;;;12.60;67.40;12.70;99342.00;;;;338586;28;83459;-88
2021/05/06 00:33:38;;;;;;;3.97;2.45;;;12.70;67.40;12.70;99333.00;;;;339677;28;87609;-86
2021/05/06 00:33:49;;;;;;;5.00;3.25;;;12.60;66.90;12.80;99343.00;;;;342633;28;83423;-87
2021/05/06 00:34:01;;;;;;;5.28;3.30;;;12.60;66.80;12.80;99342.00;;;;339657;28;86659;-86
2021/05/06 00:34:12;;;;;;;5.32;2.78;;;12.60;67.40;12.90;99343.00;;;;340819;28;83778;-87
2021/05/06 00:34:24;;;;;;;6.25;2.38;;;12.60;66.80;12.80;99340.00;;;;342225;28;86658;-86
2021/05/06 00:34:35;;;;;;;7.07;2.20;;;12.60;67.40;12.80;99334.00;;;;346526;28;83745;-87
2021/05/06 00:34:47;;;;;;;5.78;2.38;;;12.60;67.50;12.70;99336.00;;;;346731;28;84880;-87
2021/05/06 00:34:58;;;;;;;4.30;2.25;;;12.60;67.50;12.80;99338.00;;;;346523;28;83635;-86
2021/05/06 00:35:10;;;;;;;10.63;2.47;;;12.60;67.10;12.60;99337.00;;;;343720;28;87629;-87
2021/05/06 00:35:21;;;;;;;11.05;2.40;;;12.60;67.60;12.60;99334.00;;;;345398;28;83591;-86
2021/05/06 00:35:35;;;;;;;6.47;2.67;;;12.60;67.70;12.60;99334.00;;;;343593;28;87499;-87
2021/05/06 00:35:51;;;;;;;5.43;2.72;;;12.60;67.80;12.70;99343.00;;;;342658;28;83498;-87
2021/05/06 00:36:02;;;;;;;5.32;2.50;;;12.60;67.60;12.60;99339.00;;;;346553;28;87575;-86
2021/05/06 00:36:13;;;;;;;5.38;2.50;;;12.60;67.40;12.50;99338.00;;;;343874;28;83457;-86
2021/05/06 00:36:25;;;;;;;6.70;2.83;;;12.50;68.10;12.60;99329.00;;;;345386;28;85484;-87
2021/05/06 00:36:37;;;;;;;6.15;2.70;;;12.50;68.10;12.60;99334.00;;;;342968;28;83498;-87
2021/05/06 00:36:49;;;;;;;5.55;2.38;;;12.50;67.60;12.80;99337.00;;;;344055;28;83952;-87
2021/05/06 00:37:00;;;;;;;5.88;2.45;;;12.50;67.20;12.90;99338.00;;;;342595;28;83455;-86
2021/05/06 00:37:14;;;;;;;6.28;2.40;;;12.50;67.20;13.00;99332.00;;;;343668;28;84659;-87
2021/05/06 00:37:27;;;;;;;4.97;2.03;;;12.60;67.50;13.00;99330.00;;;;345194;28;83459;-87
2021/05/06 00:37:46;;;;;;;5.30;2.00;;;12.60;67.70;13.00;99332.00;;;;343984;28;85559;-87
2021/05/06 00:38:16;;;;;;;5.35;2.65;;;12.60;68.10;12.40;99335.00;;;;343724;28;84945;-87
2021/05/06 00:38:36;;;;;;;5.15;2.50;;;12.60;68.10;12.40;99332.00;;;;343798;28;83409;-87
2021/05/06 00:38:51;;;;;;;4.38;2.20;;;12.60;68.40;12.60;99332.00;;;;343866;28;85850;-87
2021/05/06 00:39:08;;;;;;;5.68;2.45;;;12.60;68.10;12.60;99335.00;;;;341866;28;82607;-86
2021/05/06 00:39:34;;;;;;;5.75;2.45;;;12.60;68.00;12.70;99332.00;;;;342412;28;86163;-87
2021/05/06 00:40:00;;;;;;;5.05;2.22;;;12.60;68.00;12.70;99333.00;;;;342729;28;83315;-87
2021/05/06 00:40:15;;;;;;;4.70;2.30;;;12.50;67.90;12.30;99334.00;;;;343848;28;84742;-88
2021/05/06 00:41:54;;;;;;;5.25;2.08;;;12.50;68.40;12.50;99325.00;;;;346845;28;84057;-87
2021/05/06 00:42:49;;;;;;;5.32;2.30;;;12.50;68.10;12.70;99335.00;;;;342246;28;85984;-87
2021/05/06 00:43:20;;;;;;;6.47;2.08;;;12.40;67.80;12.40;99327.00;;;;342636;28;83755;-86
2021/05/06 00:45:07;;;;;;;7.30;2.08;;;12.40;67.80;12.60;99332.00;;;;338391;28;83525;-86
2021/05/06 00:53:54;;;;;;;6.13;1.80;;;12.40;68.20;12.70;99334.00;;;;339720;28;85227;-86
2021/05/06 00:55:07;;;;;;;4.03;1.70;;;12.30;69.00;11.80;99331.00;;;;338932;28;84271;-86
2021/05/06 00:55:08;;;;;;;4.35;2.30;;;12.30;69.00;12.00;99334.00;;;;336331;28;83469;-86
2021/05/06 00:59:37;;;;;;;4.95;1.83;;;12.00;70.10;12.30;99326.00;;;;333517;29;84755;-86
2021/05/06 01:01:39;;;;;;;5.50;1.73;;;12.10;69.70;12.30;99323.00;;;;336323;28;85708;-88
2021/05/06 01:03:09;;;;;;;4.13;1.67;;;12.10;70.50;12.10;99316.00;;;;334113;29;84839;-87
2021/05/06 01:03:36;;;;;;;3.05;1.65;;;12.00;70.20;12.40;99318.00;;;;336211;28;84571;-87
2021/05/06 01:04:04;;;;;;;3.00;1.73;;;12.10;69.90;12.30;99312.00;;;;334831;29;87685;-87
2021/05/06 01:05:08;;;;;;;3.95;1.63;;;12.10;70.10;12.20;99309.00;;;;337603;28;83625;-86
2021/05/06 01:05:44;;;;;;;3.85;1.83;;;12.10;70.20;12.00;99298.00;;;;334796;29;82473;-88
2021/05/06 01:06:02;;;;;;;4.13;2.05;;;12.00;70.70;12.00;99296.00;;;;332471;29;85499;-86
2021/05/06 01:06:18;;;;;;;3.80;2.05;;;12.00;70.50;11.80;99300.00;;;;332417;29;83521;-87
2021/05/06 01:06:31;;;;;;;3.88;1.90;;;12.00;70.90;11.60;99307.00;;;;334914;29;85515;-87
2021/05/06 01:06:55;;;;;;;5.78;2.00;;;12.00;71.00;11.60;99299.00;;;;333735;29;83392;-87
2021/05/06 01:07:48;;;;;;;4.60;1.60;;;12.00;70.80;12.20;99294.00;;;;336051;28;84060;-87
2021/05/06 01:08:50;;;;;;;4.38;1.80;;;12.00;70.20;12.20;99300.00;;;;334840;29;83479;-88
2021/05/06 01:09:06;;;;;;;4.25;1.50;;;12.00;70.40;12.20;99306.00;;;;330936;29;84747;-87
2021/05/06 01:09:19;;;;;;;4.63;1.48;;;12.00;70.60;12.20;99305.00;;;;333665;29;82443;-87
2021/05/06 01:09:37;;;;;;;4.90;1.65;;;11.90;70.30;12.10;99297.00;;;;333380;29;86777;-88
2021/05/06 01:11:08;;;;;;;3.75;1.40;;;11.90;71.10;11.90;99304.00;;;;332450;29;85630;-88
2021/05/06 01:11:55;;;;;;;5.60;1.70;;;11.90;70.90;11.80;99308.00;;;;331790;29;86653;-86
2021/05/06 01:12:06;;;;;;;4.57;2.10;;;11.80;71.50;11.80;99318.00;;;;330978;29;83985;-87
2021/05/06 01:12:16;;;;;;;5.13;2.35;;;11.80;71.30;11.80;99318.00;;;;332378;29;83250;-87
2021/05/06 01:12:27;;;;;;;4.80;2.00;;;11.80;71.10;11.80;99310.00;;;;332397;29;83464;-87
2021/05/06 01:12:41;;;;;;;3.90;1.70;;;11.80;71.30;11.80;99316.00;;;;328529;29;86445;-88
2021/05/06 01:12:51;;;;;;;4.20;1.70;;;11.80;71.30;11.90;99315.00;;;;333577;29;83485;-87
2021/05/06 01:13:02;;;;;;;4.27;1.70;;;11.80;71.30;11.90;99316.00;;;;332475;29;86464;-87
2021/05/06 01:13:18;;;;;;;4.22;1.77;;;11.80;71.50;12.00;99315.00;;;;333654;29;83477;-87
2021/05/06 01:13:31;;;;;;;4.20;1.58;;;11.80;71.30;11.90;99318.00;;;;334870;29;86787;-87
2021/05/06 01:13:44;;;;;;;4.22;1.63;;;11.80;72.10;11.90;99320.00;;;;334850;29;83383;-88
2021/05/06 01:14:05;;;;;;;4.90;2.20;;;11.80;72.30;11.90;99320.00;;;;334987;29;86356;-90
2021/05/06 01:14:16;;;;;;;5.03;2.08;;;11.80;72.10;11.80;99311.00;;;;334883;29;83313;-87
2021/05/06 01:14:26;;;;;;;3.92;1.73;;;11.80;72.20;11.80;99326.00;;;;336278;28;86724;-87
2021/05/06 01:14:38;;;;;;;3.95;1.80;;;11.70;72.10;11.80;99308.00;;;;334701;29;83574;-88
2021/05/06 01:14:49;;;;;;;3.60;1.70;;;11.70;71.90;11.80;99314.00;;;;333494;29;85393;-87
2021/05/06 01:15:00;;;;;;;3.33;1.52;;;11.70;72.10;11.80;99312.00;;;;332541;29;83482;-87
2021/05/06 01:15:11;;;;;;;3.20;1.40;;;11.70;71.90;11.80;99320.00;;;;333695;29;86157;-89
2021/05/06 01:15:21;;;;;;;3.60;1.50;;;11.70;71.80;11.80;99300.00;;;;333791;29;83395;-87
2021/05/06 01:15:32;;;;;;;3.58;1.55;;;11.70;72.30;11.90;99310.00;;;;334801;29;85066;-87
2021/05/06 01:15:43;;;;;;;4.40;1.70;;;11.70;72.00;11.80;99319.00;;;;332324;29;83712;-87
2021/05/06 01:15:53;;;;;;;3.90;1.80;;;11.70;71.80;11.90;99307.00;;;;333667;29;86003;-87
2021/05/06 01:16:05;;;;;;;5.47;1.98;;;11.70;71.60;12.00;99317.00;;;;332389;29;83493;-88
2021/05/06 01:16:15;;;;;;;6.30;1.98;;;11.70;71.40;11.80;99316.00;;;;334825;28;86295;-88
2021/05/06 01:16:26;;;;;;;5.88;1.85;;;11.70;72.00;11.70;99312.00;;;;333701;29;83461;-88
2021/05/06 01:16:37;;;;;;;5.70;1.80;;;11.70;72.40;11.80;99315.00;;;;334970;29;86407;-87
2021/05/06 01:16:48;;;;;;;4.47;1.98;;;11.70;72.10;11.90;99313.00;;;;333622;29;83728;-87
2021/05/06 01:16:58;;;;;;;5.20;2.10;;;11.70;71.90;12.00;99308.00;;;;333634;29;86320;-87
2021/05/06 01:17:09;;;;;;;4.53;2.30;;;11.70;71.60;12.10;99316.00;;;;335037;29;83283;-87
2021/05/06 01:17:20;;;;;;;4.25;2.13;;;11.70;71.70;12.20;99320.00;;;;332417;29;84393;-87
2021/05/06 01:17:30;;;;;;;3.30;2.13;;;11.70;72.10;12.20;99317.00;;;;330706;29;82607;-88
2021/05/06 01:17:41;;;;;;;3.55;2.28;;;11.80;72.20;12.20;99309.00;;;;333524;29;86231;-88
2021/05/06 01:17:52;;;;;;;4.28;2.25;;;11.80;72.30;12.10;99316.00;;;;332177;29;83545;-87
2021/05/06 01:18:03;;;;;;;3.72;1.85;;;11.80;72.30;12.00;99318.00;;;;331739;29;86674;-87
2021/05/06 01:18:14;;;;;;;3.75;1.83;;;11.80;72.70;12.00;99318.00;;;;331096;29;83363;-87
2021/05/06 01:18:25;;;;;;;4.32;1.73;;;11.80;72.10;12.00;99318.00;;;;332495;29;86011;-85
2021/05/06 01:18:36;;;;;;;4.40;1.65;;;11.80;72.20;11.90;99315.00;;;;332304;29;83538;-88
2021/05/06 01:18:46;;;;;;;4.27;1.67;;;11.80;72.50;11.80;99319.00;;;;334750;29;85195;-87
2021/05/06 01:18:57;;;;;;;3.38;1.80;;;11.80;72.70;11.70;99312.00;;;;333774;29;83310;-87
2021/05/06 01:19:08;;;;;;;4.03;1.92;;;11.70;72.70;11.70;99319.00;;;;331177;29;83868;-87
2021/05/06 01:19:18;;;;;;;4.88;1.80;;;11.70;72.70;11.70;99315.00;;;;331219;29;83400;-87
2021/05/06 01:19:29;;;;;;;9.47;1.80;;;11.70;72.90;11.80;99316.00;;;;334935;29;84064;-87
2021/05/06 01:19:40;;;;;;;10.25;1.85;;;11.70;72.90;11.70;99313.00;;;;332284;29;83485;-87
2021/05/06 01:19:50;;;;;;;9.25;2.05;;;11.70;73.00;11.80;99319.00;;;;336232;28;85192;-87
2021/05/06 01:20:01;;;;;;;4.77;1.87;;;11.70;72.40;11.90;99313.00;;;;333759;29;83430;-87
2021/05/06 01:20:13;;;;;;;5.60;1.70;;;11.70;72.00;12.00;99313.00;;;;331069;29;83809;-88
2021/05/06 01:20:23;;;;;;;5.75;1.70;;;11.70;71.80;12.10;99327.00;;;;333767;29;83494;-87
2021/05/06 01:20:34;;;;;;;5.13;1.90;;;11.70;72.10;12.10;99312.00;;;;329394;29;86737;-87
2021/05/06 01:20:48;;;;;;;3.83;1.92;;;11.70;72.00;12.20;99322.00;;;;333492;29;83605;-88
2021/05/06 01:21:01;;;;;;;4.40;2.08;;;11.70;72.50;12.20;99313.00;;;;333230;29;85478;-88
2021/05/06 01:21:12;;;;;;;5.28;2.20;;;11.70;73.10;12.20;99316.00;;;;332347;29;83395;-87
2021/05/06 01:21:23;;;;;;;5.65;2.10;;;11.80;72.80;12.10;99315.00;;;;331187;29;86182;-87
2021/05/06 01:21:33;;;;;;;4.50;2.10;;;11.80;72.40;12.20;99306.00;;;;330288;29;83436;-87
2021/05/06 01:21:44;;;;;;;4.10;2.05;;;11.80;72.20;12.20;99307.00;;;;334906;29;83133;-87
2021/05/06 01:21:55;;;;;;;4.68;2.17;;;11.80;72.20;12.10;99313.00;;;;333516;29;83971;-88
2021/05/06 01:22:06;;;;;;;5.22;2.28;;;11.80;72.30;12.10;99312.00;;;;333638;29;86574;-87
2021/05/06 01:22:17;;;;;;;4.50;2.50;;;11.80;72.30;12.10;99315.00;;;;333626;29;83434;-88
2021/05/06 01:22:28;;;;;;;3.75;2.45;;;11.80;72.80;11.90;99311.00;;;;332431;29;85299;-87
2021/05/06 01:22:40;;;;;;;3.63;2.17;;;11.80;72.90;11.80;99309.00;;;;332355;29;83397;-87
2021/05/06 01:22:52;;;;;;;3.80;2.03;;;11.80;73.00;12.00;99298.00;;;;332262;29;85293;-87
2021/05/06 01:23:18;;;;;;;3.67;2.08;;;11.80;72.70;12.10;99315.00;;;;332375;29;85086;-87
2021/05/06 01:23:32;;;;;;;5.07;2.17;;;11.80;73.00;12.00;99310.00;;;;333820;29;84327;-88
2021/05/06 01:23:45;;;;;;;5.53;2.33;;;11.70;72.60;12.10;99307.00;;;;332257;29;83629;-87
2021/05/06 01:23:56;;;;;;;6.22;2.60;;;11.80;73.10;11.80;99304.00;;;;333576;29;85565;-87
2021/05/06 01:24:23;;;;;;;3.78;2.00;;;11.80;73.20;12.10;99299.00;;;;327060;29;84846;-88
2021/05/06 01:24:54;;;;;;;4.90;2.17;;;11.80;72.20;12.00;99312.00;;;;329568;29;86805;-86
2021/05/06 01:25:12;;;;;;;6.68;2.42;;;11.80;72.90;12.00;99300.00;;;;329937;29;83196;-87
2021/05/06 01:25:23;;;;;;;5.40;2.15;;;11.80;72.60;12.00;99307.00;;;;329839;29;84818;-87
2021/05/06 01:25:34;;;;;;;5.78;2.10;;;11.80;72.30;11.90;99304.00;;;;333669;29;83527;-87
2021/05/06 01:26:07;;;;;;;4.75;1.88;;;11.70;72.60;11.80;99306.00;;;;330954;29;87305;-87
2021/05/06 01:27:01;;;;;;;4.88;2.47;;;11.80;72.80;12.20;99304.00;;;;334804;29;85062;-87
2021/05/06 01:27:04;;;;;;;5.32;1.85;;;11.80;73.20;11.90;99307.00;;;;333519;29;83831;-87
2021/05/06 01:27:17;;;;;;;5.45;2.17;;;11.80;73.20;12.00;99295.00;;;;331113;29;83520;-87
2021/05/06 01:28:01;;;;;;;3.67;1.92;;;11.80;74.20;11.50;99293.00;;;;332521;29;83360;-87
2021/05/06 01:28:16;;;;;;;3.63;2.15;;;11.70;73.50;11.40;99306.00;;;;332245;29;87462;-87
2021/05/06 01:28:32;;;;;;;6.57;2.42;;;11.70;74.30;11.60;99298.00;;;;335068;29;83377;-87
2021/05/06 01:28:50;;;;;;;6.90;2.42;;;11.70;73.90;11.90;99306.00;;;;332101;29;84437;-88
2021/05/06 01:29:28;;;;;;;6.43;2.33;;;11.70;73.80;11.90;99304.00;;;;330042;29;83740;-87
2021/05/06 01:29:46;;;;;;;3.90;1.90;;;11.70;73.90;11.90;99288.00;;;;333317;29;85086;-87
2021/05/06 01:30:33;;;;;;;6.53;2.72;;;11.70;73.60;11.80;99283.00;;;;334873;29;85408;-88
2021/05/06 01:30:49;;;;;;;4.93;2.15;;;11.70;74.10;11.50;99292.00;;;;334902;29;83409;-88
2021/05/06 01:31:17;;;;;;;4.60;2.28;;;11.60;74.20;11.50;99294.00;;;;333799;29;83345;-87
2021/05/06 01:31:33;;;;;;;4.53;2.08;;;11.60;74.20;11.50;99292.00;;;;332255;29;85126;-87
2021/05/06 01:31:52;;;;;;;4.32;1.92;;;11.60;74.40;11.50;99291.00;;;;334978;29;83366;-90
2021/05/06 01:32:50;;;;;;;4.60;2.22;;;11.60;74.70;11.70;99293.00;;;;330879;29;83407;-88
2021/05/06 01:33:33;;;;;;;4.30;1.70;;;11.60;73.80;11.90;99286.00;;;;334555;29;83595;-87
2021/05/06 01:33:51;;;;;;;4.18;2.30;;;11.60;74.20;11.80;99289.00;;;;336348;28;84183;-89
2021/05/06 01:34:19;;;;;;;4.10;1.90;;;11.60;73.90;11.80;99283.00;;;;336233;28;85384;-88
2021/05/06 01:34:31;;;;;;;3.47;1.63;;;11.60;74.00;11.50;99285.00;;;;332253;29;83950;-86
2021/05/06 01:34:45;;;;;;;3.72;1.73;;;11.60;74.70;11.40;99288.00;;;;334747;29;86877;-87
2021/05/06 01:35:03;;;;;;;4.32;1.60;;;11.60;74.50;11.40;99287.00;;;;333649;29;83435;-87
2021/05/06 01:35:18;;;;;;;3.78;1.92;;;11.50;74.60;11.50;99285.00;;;;334934;29;85925;-88
2021/05/06 01:35:36;;;;;;;5.38;2.58;;;11.60;74.80;11.40;99289.00;;;;337212;28;82768;-88
2021/05/06 01:36:05;;;;;;;7.80;2.83;;;11.50;74.70;11.20;99280.00;;;;338369;28;85792;-87
2021/05/06 01:36:20;;;;;;;5.03;2.60;;;11.50;75.00;11.20;99291.00;;;;337577;28;83853;-87
2021/05/06 01:36:55;;;;;;;4.55;2.50;;;11.50;75.10;11.30;99283.00;;;;338864;28;86389;-87
2021/05/06 01:37:37;;;;;;;4.05;2.55;;;11.40;74.50;11.40;99291.00;;;;340209;28;85863;-87
2021/05/06 01:40:13;;;;;;;3.15;1.70;;;11.30;75.90;11.20;99298.00;;;;341509;28;85542;-88
2021/05/06 01:42:21;;;;;;;5.88;2.60;;;11.20;76.60;10.80;99317.00;;;;338583;28;87063;-88
2021/05/06 01:44:09;;;;;;;4.53;2.00;;;11.10;76.00;11.10;99314.00;;;;337540;28;85392;-87
2021/05/06 01:45:07;;;;;;;8.02;2.20;;;11.10;75.80;11.30;99314.00;;;;335307;28;87214;-87
2021/05/06 01:48:08;;;;;;;7.32;2.30;;;11.20;76.70;11.10;99307.00;;;;341732;28;82851;-87
2021/05/06 01:49:57;;;;;;;4.54;2.16;;;11.10;77.40;10.90;99308.00;;;;339943;28;86337;-87
2021/05/06 01:50:24;;;;;;;3.80;2.40;;;11.10;77.60;11.20;99306.00;;;;341122;28;83540;-87
2021/05/06 01:51:01;;;;;;;5.47;2.45;;;11.10;76.60;11.10;99296.00;;;;338965;28;86043;-87
2021/05/06 01:58:28;;;;;;;4.22;1.95;;;11.30;77.10;11.40;99289.00;;;;334559;28;84417;-87
2021/05/06 01:59:03;;;;;;;4.48;2.38;;;11.30;77.00;11.40;99288.00;;;;336411;28;84456;-87
2021/05/06 02:00:01;;;;;;;4.88;2.10;;;11.30;77.60;11.40;99292.00;;;;332502;29;84120;-87
2021/05/06 02:00:16;;;;;;;5.68;2.22;;;11.30;77.80;11.50;99294.00;;;;332085;29;83035;-87
2021/05/06 02:00:31;;;;;;;6.05;2.35;;;11.30;77.00;11.40;99288.00;;;;329873;29;84680;-87
2021/05/06 02:00:49;;;;;;;5.95;2.22;;;11.30;77.60;11.40;99290.00;;;;331221;29;82515;-87
2021/05/06 02:01:12;;;;;;;5.00;2.13;;;11.30;76.60;11.60;99288.00;;;;331108;29;82587;-87
2021/05/06 02:01:24;;;;;;;4.82;2.13;;;11.30;76.60;11.60;99289.00;;;;329866;29;85084;-87
2021/05/06 02:01:36;;;;;;;5.13;2.17;;;11.30;76.80;11.50;99293.00;;;;329936;29;82542;-87
2021/05/06 02:01:49;;;;;;;4.97;2.20;;;11.30;76.30;11.50;99294.00;;;;330023;29;84746;-87
2021/05/06 02:02:00;;;;;;;4.55;2.33;;;11.30;77.20;11.50;99291.00;;;;329960;29;82448;-87
2021/05/06 02:02:12;;;;;;;3.95;2.45;;;11.30;77.00;11.50;99285.00;;;;329564;29;86874;-87
2021/05/06 02:02:23;;;;;;;4.72;2.42;;;11.30;77.10;11.70;99279.00;;;;331038;29;83612;-87
2021/05/06 02:02:35;;;;;;;5.86;2.40;;;11.30;76.80;11.50;99293.00;;;;330786;29;85414;-87
2021/05/06 02:02:47;;;;;;;5.28;2.15;;;11.30;76.80;11.60;99293.00;;;;332941;29;83537;-87
2021/05/06 02:03:00;;;;;;;9.25;2.05;;;11.30;76.40;11.80;99286.00;;;;330982;29;84232;-88
2021/05/06 02:03:11;;;;;;;8.82;2.13;;;11.40;76.30;11.80;99287.00;;;;329896;29;83375;-87
2021/05/06 02:03:23;;;;;;;10.77;2.40;;;11.40;76.40;11.80;99286.00;;;;329869;29;85854;-87
2021/05/06 02:03:34;;;;;;;6.13;2.13;;;11.40;76.90;11.80;99288.00;;;;330893;29;83321;-87
2021/05/06 02:03:46;;;;;;;4.63;1.70;;;11.40;76.00;11.80;99278.00;;;;331174;29;84914;-87
2021/05/06 02:03:57;;;;;;;4.13;1.75;;;11.40;75.90;11.70;99282.00;;;;333783;29;83436;-87
2021/05/06 02:04:09;;;;;;;5.82;2.35;;;11.40;76.10;11.70;99282.00;;;;332304;29;86131;-87
2021/05/06 02:04:21;;;;;;;5.38;2.30;;;11.40;76.30;11.80;99286.00;;;;332454;29;83399;-87
2021/05/06 02:04:32;;;;;;;7.75;2.20;;;11.40;76.40;11.70;99277.00;;;;328337;29;85761;-86
2021/05/06 02:04:44;;;;;;;7.07;2.03;;;11.40;76.60;11.60;99285.00;;;;332186;29;83359;-87
2021/05/06 02:04:55;;;;;;;4.88;1.88;;;11.40;76.60;11.40;99288.00;;;;329556;29;85238;-87
2021/05/06 02:05:08;;;;;;;4.90;1.95;;;11.40;76.40;11.50;99289.00;;;;332297;29;83328;-87
2021/05/06 02:05:19;;;;;;;4.07;1.63;;;11.40;76.60;11.50;99287.00;;;;332355;29;85486;-87
2021/05/06 02:05:31;;;;;;;3.78;1.63;;;11.40;76.70;11.40;99286.00;;;;329627;29;83519;-87
2021/05/06 02:05:42;;;;;;;3.25;1.77;;;11.40;76.70;11.40;99288.00;;;;332088;29;85578;-88
2021/05/06 02:05:54;;;;;;;4.22;1.90;;;11.40;76.80;11.50;99290.00;;;;332486;29;83369;-87
2021/05/06 02:06:06;;;;;;;5.70;1.88;;;11.40;76.60;11.60;99284.00;;;;332149;29;84703;-87
2021/05/06 02:06:18;;;;;;;6.45;1.90;;;11.40;77.00;11.60;99277.00;;;;332129;29;83943;-88
2021/05/06 02:06:29;;;;;;;6.65;2.20;;;11.40;76.20;11.70;99278.00;;;;332361;29;85530;-87
2021/05/06 02:06:47;;;;;;;5.35;2.10;;;11.40;76.00;11.50;99282.00;;;;332614;29;83578;-87
2021/05/06 02:06:58;;;;;;;4.53;1.75;;;11.40;76.10;11.40;99289.00;;;;329934;29;84116;-87
2021/05/06 02:07:10;;;;;;;5.15;2.17;;;11.40;76.40;11.40;99277.00;;;;330903;29;83869;-87
2021/05/06 02:07:21;;;;;;;4.35;2.25;;;11.40;76.30;11.40;99283.00;;;;332434;29;82756;-87
2021/05/06 02:07:36;;;;;;;4.22;2.13;;;11.40;76.30;11.40;99284.00;;;;329640;29;84166;-87
2021/05/06 02:07:48;;;;;;;3.45;1.95;;;11.40;76.40;11.50;99279.00;;;;332381;29;84530;-87
2021/05/06 02:08:01;;;;;;;4.85;2.17;;;11.40;75.90;11.60;99284.00;;;;329975;29;82383;-87
2021/05/06 02:08:12;;;;;;;4.97;1.98;;;11.40;75.60;11.70;99285.00;;;;332251;29;85802;-87
2021/05/06 02:08:24;;;;;;;5.00;2.05;;;11.40;75.50;11.60;99283.00;;;;331236;29;83399;-87
2021/05/06 02:08:35;;;;;;;3.85;1.90;;;11.40;75.40;11.70;99279.00;;;;331172;29;85769;-87
2021/05/06 02:08:47;;;;;;;3.75;1.65;;;11.40;75.30;11.70;99275.00;;;;333738;29;83364;-87
2021/05/06 02:08:58;;;;;;;3.05;1.45;;;11.50;75.40;11.70;99283.00;;;;330951;29;84405;-87
2021/05/06 02:09:10;;;;;;;3.90;1.55;;;11.50;75.30;11.80;99278.00;;;;329878;29;83633;-87
2021/05/06 02:09:22;;;;;;;4.45;1.77;;;11.50;75.00;11.80;99280.00;;;;330839;29;86822;-87
2021/05/06 02:09:33;;;;;;;4.32;1.83;;;11.50;75.00;11.80;99280.00;;;;331138;29;83444;-87
2021/05/06 02:09:46;;;;;;;4.32;2.00;;;11.50;75.50;11.90;99283.00;;;;334987;29;85466;-87
2021/05/06 02:09:58;;;;;;;3.42;1.85;;;11.50;74.80;11.80;99283.00;;;;331237;29;82364;-87
2021/05/06 02:10:15;;;;;;;2.75;1.58;;;11.50;74.80;11.60;99275.00;;;;333682;29;84072;-87
2021/05/06 02:10:27;;;;;;;3.75;1.50;;;11.50;74.90;11.50;99284.00;;;;330934;29;84525;-88
2021/05/06 02:10:39;;;;;;;4.70;1.80;;;11.50;75.20;11.50;99282.00;;;;332312;29;87456;-87
2021/05/06 02:10:55;;;;;;;4.28;1.95;;;11.50;75.60;11.60;99279.00;;;;333534;29;83677;-88
2021/05/06 02:11:07;;;;;;;4.60;1.83;;;11.50;75.20;11.60;99269.00;;;;329921;29;82945;-87
2021/05/06 02:11:18;;;;;;;5.63;1.95;;;11.60;75.00;11.50;99279.00;;;;332394;29;83635;-87
2021/05/06 02:11:29;;;;;;;5.18;1.92;;;11.50;75.80;11.50;99278.00;;;;332019;29;87134;-87
2021/05/06 02:11:41;;;;;;;3.78;1.83;;;11.50;75.80;11.50;99285.00;;;;333034;29;83524;-87
2021/05/06 02:11:52;;;;;;;3.85;1.83;;;11.50;75.80;11.50;99279.00;;;;329823;29;85902;-87
2021/05/06 02:12:05;;;;;;;3.85;1.80;;;11.50;76.00;11.50;99282.00;;;;330993;29;83531;-87
2021/05/06 02:12:18;;;;;;;4.65;2.00;;;11.50;75.80;11.50;99283.00;;;;332305;29;85396;-87
2021/05/06 02:12:29;;;;;;;4.75;2.20;;;11.50;75.60;11.50;99283.00;;;;330853;29;83481;-87
2021/05/06 02:12:42;;;;;;;4.47;1.75;;;11.50;75.60;11.60;99280.00;;;;329551;29;86929;-87
2021/05/06 02:12:54;;;;;;;3.67;1.40;;;11.50;75.60;11.60;99281.00;;;;331086;29;83457;-87
2021/05/06 02:13:05;;;;;;;3.58;1.30;;;11.50;75.50;11.70;99277.00;;;;332353;29;85869;-88
2021/05/06 02:13:17;;;;;;;4.07;1.60;;;11.50;75.10;11.70;99275.00;;;;332396;29;82570;-87
2021/05/06 02:13:29;;;;;;;4.80;1.83;;;11.50;74.80;11.70;99286.00;;;;333337;29;85803;-88
2021/05/06 02:13:40;;;;;;;5.28;2.00;;;11.50;74.90;11.50;99285.00;;;;332229;29;83909;-87
2021/05/06 02:13:54;;;;;;;5.47;1.83;;;11.50;75.10;11.60;99284.00;;;;333506;29;86248;-87
2021/05/06 02:14:07;;;;;;;4.80;1.67;;;11.50;75.50;11.60;99272.00;;;;329902;29;83356;-88
2021/05/06 02:14:19;;;;;;;4.38;2.00;;;11.50;75.50;11.70;99280.00;;;;331085;29;86695;-88
2021/05/06 02:14:31;;;;;;;4.18;1.88;;;11.50;75.20;11.80;99277.00;;;;331957;29;83667;-87
2021/05/06 02:14:52;;;;;;;4.50;1.88;;;11.50;75.40;11.80;99277.00;;;;334877;29;83980;-87
2021/05/06 02:15:42;;;;;;;4.72;1.65;;;11.60;75.20;11.60;99275.00;;;;332028;29;85359;-87
2021/05/06 02:16:02;;;;;;;5.50;2.38;;;11.50;75.30;11.40;99282.00;;;;332395;29;83664;-87
2021/05/06 02:16:21;;;;;;;5.90;2.13;;;11.50;75.50;11.30;99271.00;;;;331564;29;85083;-86
2021/05/06 02:16:35;;;;;;;4.63;1.40;;;11.40;75.50;11.40;99279.00;;;;332452;29;83137;-87
2021/05/06 02:16:47;;;;;;;5.30;1.65;;;11.40;75.60;11.40;99278.00;;;;329828;29;84669;-87
2021/05/06 02:16:59;;;;;;;4.80;1.85;;;11.40;75.80;11.40;99275.00;;;;332212;29;83055;-86
2021/05/06 02:17:10;;;;;;;4.72;1.83;;;11.40;75.80;11.50;99272.00;;;;333728;29;84290;-87
2021/05/06 02:17:22;;;;;;;4.25;1.58;;;11.40;75.40;11.60;99269.00;;;;329829;29;83273;-87
2021/05/06 02:17:35;;;;;;;4.18;1.70;;;11.40;75.20;11.70;99272.00;;;;331428;29;85521;-87
2021/05/06 02:17:47;;;;;;;4.85;1.70;;;11.40;75.20;11.60;99274.00;;;;332189;29;83434;-87
2021/05/06 02:17:59;;;;;;;4.45;1.65;;;11.40;75.10;11.50;99275.00;;;;332283;29;85404;-88
2021/05/06 02:18:10;;;;;;;4.25;1.75;;;11.40;75.40;11.50;99269.00;;;;330826;29;83469;-86
2021/05/06 02:18:23;;;;;;;4.43;2.20;;;11.40;75.40;11.50;99264.00;;;;333657;29;85503;-88
2021/05/06 02:18:37;;;;;;;4.22;2.15;;;11.40;75.40;11.50;99265.00;;;;330957;29;83490;-87
2021/05/06 02:18:48;;;;;;;4.15;1.73;;;11.40;75.90;11.40;99266.00;;;;333111;29;87438;-87
2021/05/06 02:19:02;;;;;;;5.47;1.80;;;11.40;76.10;11.40;99266.00;;;;332405;29;83768;-87
2021/05/06 02:19:18;;;;;;;5.30;1.98;;;11.30;75.90;11.40;99270.00;;;;334939;29;85669;-87
2021/05/06 02:19:34;;;;;;;4.72;1.88;;;11.40;75.90;11.30;99250.00;;;;334538;29;84278;-86
2021/05/06 02:19:48;;;;;;;3.97;1.73;;;11.30;76.20;11.50;99259.00;;;;334940;29;82920;-87
2021/05/06 02:19:59;;;;;;;4.05;1.95;;;11.30;75.90;11.60;99257.00;;;;334992;29;82476;-87
2021/05/06 02:20:12;;;;;;;4.30;2.05;;;11.40;76.00;11.60;99271.00;;;;335881;28;86052;-87
2021/05/06 02:20:24;;;;;;;4.60;1.95;;;11.30;75.90;11.60;99260.00;;;;333599;29;83508;-88
2021/05/06 02:20:35;;;;;;;4.45;1.70;;;11.30;75.90;11.60;99259.00;;;;334955;28;85048;-87
2021/05/06 02:20:48;;;;;;;4.95;1.75;;;11.30;75.90;11.40;99254.00;;;;332190;29;83212;-88
2021/05/06 02:21:00;;;;;;;4.35;1.80;;;11.30;76.00;11.60;99253.00;;;;333871;29;84025;-87
2021/05/06 02:21:16;;;;;;;4.18;1.83;;;11.30;75.70;11.70;99250.00;;;;332383;29;83427;-86